createdAt,value
2023-02-19T00:01:28.121Z,97876.75
2023-02-19T00:04:30.093Z,97874.06
2023-02-19T00:07:32.015Z,97881.09
2023-02-19T00:10:33.973Z,97877.03
2023-02-19T00:13:37.308Z,97876.75
2023-02-19T00:16:40.176Z,97908.19
2023-02-19T00:19:42.194Z,97860.16
2023-02-19T00:22:44.220Z,97878.94
2023-02-19T00:25:46.331Z,97903.44
2023-02-19T00:28:50.192Z,97916.78
2023-02-19T00:31:52.303Z,97901.56
2023-02-19T00:34:54.517Z,97913.78
2023-02-19T00:37:56.483Z,97900.28
2023-02-19T00:41:01.357Z,97920.25
2023-02-19T00:44:06.997Z,97913.69
2023-02-19T00:47:08.974Z,97914.75
2023-02-19T00:50:13.889Z,97889.91
2023-02-19T00:53:16.478Z,97926.22
2023-02-19T00:56:19.085Z,97912.13
2023-02-19T00:59:21.109Z,97915.38
2023-02-19T01:02:23.060Z,97924.41
2023-02-19T01:05:25.157Z,97896.47
2023-02-19T01:08:27.724Z,97920.88
2023-02-19T01:11:29.808Z,97916.25
2023-02-19T01:14:31.856Z,97907.53
2023-02-19T01:17:36.213Z,97905.81
2023-02-19T01:20:41.075Z,97899.81
2023-02-19T01:23:44.257Z,97897.94
2023-02-19T01:26:46.295Z,97895.69
2023-02-19T01:29:48.236Z,97907.88
2023-02-19T01:32:50.335Z,97898.28
2023-02-19T01:35:53.865Z,97896.88
2023-02-19T01:38:56.033Z,97901.31
2023-02-19T01:41:58.860Z,97881.69
2023-02-19T01:45:22.113Z,97890.41
2023-02-19T01:48:29.832Z,97894.69
2023-02-19T01:51:33.947Z,97886.03
2023-02-19T01:54:38.474Z,97875.09
2023-02-19T01:57:46.746Z,97880.22
2023-02-19T02:00:52.242Z,97875.34
2023-02-19T02:03:54.482Z,97873.78
2023-02-19T02:06:57.999Z,97882.38
2023-02-19T02:10:18.413Z,97865.78
2023-02-19T02:13:21.085Z,97875.66
2023-02-19T02:16:35.757Z,97848.44
2023-02-19T02:19:54.380Z,97856.44
2023-02-19T02:22:59.026Z,97857.50
2023-02-19T02:26:15.966Z,97852.72
2023-02-19T02:29:32.943Z,97856.44
2023-02-19T02:32:53.630Z,97841.41
2023-02-19T02:36:05.645Z,97854.03
2023-02-19T02:39:11.680Z,97826.84
2023-02-19T02:42:29.199Z,97833.81
2023-02-19T02:45:40.168Z,97832.03
2023-02-19T02:49:03.287Z,97831.06
2023-02-19T02:52:28.086Z,97839.13
2023-02-19T02:55:34.750Z,97832.94
2023-02-19T02:58:37.875Z,97775.28
2023-02-19T03:02:05.115Z,97817.34
2023-02-19T03:05:32.910Z,97817.00
2023-02-19T03:08:41.322Z,97788.59
2023-02-19T03:12:05.388Z,97806.72
2023-02-19T03:15:30.236Z,97813.66
2023-02-19T03:18:54.585Z,97769.53
2023-02-19T03:22:10.180Z,97818.28
2023-02-19T03:25:44.542Z,97818.53
2023-02-19T03:29:11.928Z,97808.31
2023-02-19T03:32:29.718Z,97818.66
2023-02-19T03:35:34.814Z,97809.53
2023-02-19T03:39:04.882Z,97794.06
2023-02-19T03:42:11.451Z,97823.66
2023-02-19T03:45:41.868Z,97815.00
2023-02-19T03:49:02.960Z,97821.69
2023-02-19T03:52:20.848Z,97802.25
2023-02-19T03:55:37.057Z,97784.00
2023-02-19T03:59:15.399Z,97803.81
2023-02-19T04:02:24.031Z,97798.59
2023-02-19T04:05:29.914Z,97802.72
2023-02-19T04:08:36.080Z,97812.47
2023-02-19T04:11:40.590Z,97806.69
2023-02-19T04:15:12.627Z,97807.03
2023-02-19T04:18:18.938Z,97804.25
2023-02-19T04:21:23.142Z,97805.38
2023-02-19T04:24:37.506Z,97774.06
2023-02-19T04:27:40.503Z,97800.75
2023-02-19T04:30:43.810Z,97758.22
2023-02-19T04:33:45.934Z,97781.09
2023-02-19T04:36:47.867Z,97794.97
2023-02-19T04:39:49.833Z,97777.28
2023-02-19T04:42:51.778Z,97779.38
2023-02-19T04:45:53.716Z,97773.03
2023-02-19T04:48:56.233Z,97782.72
2023-02-19T04:51:58.262Z,97783.75
2023-02-19T04:55:00.221Z,97777.84
2023-02-19T04:58:02.220Z,97774.13
2023-02-19T05:01:04.851Z,97769.88
2023-02-19T05:04:06.920Z,97768.97
2023-02-19T05:07:08.947Z,97789.09
2023-02-19T05:10:10.891Z,97773.47
2023-02-19T05:13:12.921Z,97757.34
2023-02-19T05:16:18.884Z,97757.03
2023-02-19T05:19:20.973Z,97751.91
2023-02-19T05:22:22.948Z,97752.47
2023-02-19T05:25:24.940Z,97746.69
2023-02-19T05:28:29.155Z,97738.72
2023-02-19T05:31:33.893Z,97696.91
2023-02-19T05:34:35.977Z,97719.28
2023-02-19T05:37:37.958Z,97713.72
2023-02-19T05:40:40.496Z,97712.88
2023-02-19T05:43:44.921Z,97721.03
2023-02-19T05:46:46.923Z,97714.19
2023-02-19T05:49:49.057Z,97714.44
2023-02-19T05:52:51.085Z,97703.78
2023-02-19T05:55:53.911Z,97699.28
2023-02-19T05:58:56.972Z,97704.81
2023-02-19T06:01:59.133Z,97716.28
2023-02-19T06:05:01.084Z,97693.94
2023-02-19T06:08:03.246Z,97690.56
2023-02-19T06:11:05.430Z,97701.69
2023-02-19T06:14:07.719Z,97701.34
2023-02-19T06:17:09.667Z,97680.00
2023-02-19T06:20:11.743Z,97677.56
2023-02-19T06:23:13.784Z,97672.91
2023-02-19T06:26:18.725Z,97694.25
2023-02-19T06:29:20.708Z,97692.44
2023-02-19T06:32:23.581Z,97691.97
2023-02-19T06:35:25.623Z,97695.34
2023-02-19T06:38:28.436Z,97693.50
2023-02-19T06:41:30.470Z,97691.88
2023-02-19T06:44:32.515Z,97704.47
2023-02-19T06:47:34.597Z,97717.00
2023-02-19T06:50:36.645Z,97650.78
2023-02-19T06:53:38.863Z,97704.56
2023-02-19T06:56:42.295Z,97667.31
2023-02-19T06:59:44.396Z,97688.16
2023-02-19T07:02:46.292Z,97724.84
2023-02-19T07:05:48.600Z,97723.44
2023-02-19T07:08:52.059Z,97705.25
2023-02-19T07:11:54.500Z,97681.47
2023-02-19T07:14:56.499Z,97723.53
2023-02-19T07:17:59.624Z,97724.97
2023-02-19T07:21:10.655Z,97727.31
2023-02-19T07:24:13.124Z,97755.25
2023-02-19T07:27:15.074Z,97742.66
2023-02-19T07:30:17.043Z,97715.44
2023-02-19T07:33:19.393Z,97750.75
2023-02-19T07:36:23.470Z,97729.25
2023-02-19T07:39:25.435Z,97717.63
2023-02-19T07:42:27.493Z,97728.38
2023-02-19T07:45:29.573Z,97720.22
2023-02-19T07:48:31.568Z,97683.00
2023-02-19T07:51:33.632Z,97719.31
2023-02-19T07:54:35.725Z,97718.66
2023-02-19T07:57:37.734Z,97714.84
2023-02-19T08:00:40.434Z,97734.44
2023-02-19T08:03:43.064Z,97718.63
2023-02-19T08:06:45.353Z,97730.59
2023-02-19T08:10:07.328Z,97723.25
2023-02-19T08:13:26.033Z,97722.06
2023-02-19T08:16:42.012Z,97763.25
2023-02-19T08:19:45.161Z,97764.56
2023-02-19T08:22:47.195Z,97764.88
2023-02-19T08:25:50.610Z,97767.16
2023-02-19T08:28:52.713Z,97775.22
2023-02-19T08:31:54.793Z,97755.75
2023-02-19T08:34:56.800Z,97763.78
2023-02-19T08:37:59.390Z,97772.84
2023-02-19T08:41:04.647Z,97769.06
2023-02-19T08:44:06.645Z,97760.19
2023-02-19T08:47:08.683Z,97737.81
2023-02-19T08:50:12.426Z,97787.84
2023-02-19T08:53:14.421Z,97748.38
2023-02-19T08:56:17.843Z,97762.84
2023-02-19T08:59:20.849Z,97739.03
2023-02-19T09:02:24.013Z,97767.84
2023-02-19T09:05:25.955Z,97758.31
2023-02-19T09:08:27.980Z,97768.72
2023-02-19T09:11:29.966Z,97779.81
2023-02-19T09:14:33.791Z,97773.19
2023-02-19T09:17:35.835Z,97774.50
2023-02-19T09:20:37.901Z,97746.44
2023-02-19T09:23:40.102Z,97786.88
2023-02-19T09:26:42.043Z,97792.59
2023-02-19T09:29:44.169Z,97791.78
2023-02-19T09:32:46.337Z,97794.59
2023-02-19T09:35:48.483Z,97798.88
2023-02-19T09:38:50.482Z,97799.44
2023-02-19T09:41:58.348Z,97785.63
2023-02-19T09:45:02.043Z,97785.78
2023-02-19T09:48:06.648Z,97757.13
2023-02-19T09:51:11.295Z,97775.72
2023-02-19T09:54:23.758Z,97748.56
2023-02-19T09:57:29.881Z,97746.56
2023-02-19T10:00:34.453Z,97765.28
2023-02-19T10:03:41.573Z,97763.34
2023-02-19T10:06:43.994Z,97718.59
2023-02-19T10:09:52.979Z,97727.00
2023-02-19T10:13:00.371Z,97693.19
2023-02-19T10:16:06.569Z,97718.03
2023-02-19T10:19:12.855Z,97678.31
2023-02-19T10:22:15.146Z,97719.09
2023-02-19T10:25:17.930Z,97720.25
2023-02-19T10:28:23.564Z,97703.44
2023-02-19T10:31:26.282Z,97735.34
2023-02-19T10:34:28.902Z,97730.34
2023-02-19T10:37:30.952Z,97730.13
2023-02-19T10:40:34.153Z,97730.06
2023-02-19T10:43:41.340Z,97742.59
2023-02-19T10:46:49.962Z,97761.53
2023-02-19T10:49:56.124Z,97756.22
2023-02-19T10:53:01.125Z,97764.31
2023-02-19T10:56:10.695Z,97748.84
2023-02-19T10:59:19.224Z,97759.25
2023-02-19T11:02:21.963Z,97741.38
2023-02-19T11:05:25.137Z,97803.53
2023-02-19T11:08:27.861Z,97742.78
2023-02-19T11:11:32.812Z,97760.06
2023-02-19T11:14:35.342Z,97736.03
2023-02-19T11:17:37.838Z,97772.88
2023-02-19T11:20:49.929Z,97800.19
2023-02-19T11:23:52.599Z,97788.47
2023-02-19T11:26:55.569Z,97774.81
2023-02-19T11:30:36.561Z,97780.47
2023-02-19T11:33:45.989Z,97792.25
2023-02-19T11:37:08.429Z,97772.84
2023-02-19T11:40:13.854Z,97810.66
2023-02-19T11:43:27.335Z,97797.09
2023-02-19T11:46:47.035Z,97794.78
2023-02-19T11:49:49.282Z,97793.38
2023-02-19T11:53:32.173Z,97757.81
2023-02-19T11:56:37.477Z,97781.06
2023-02-19T11:59:56.295Z,97765.59
2023-02-19T12:03:16.965Z,97804.75
2023-02-19T12:06:47.945Z,97789.47
2023-02-19T12:10:18.156Z,97791.31
2023-02-19T12:13:26.838Z,97804.19
2023-02-19T12:16:59.391Z,97786.81
2023-02-19T12:20:23.264Z,97807.53
2023-02-19T12:23:59.473Z,97801.03
2023-02-19T12:27:20.347Z,97800.31
2023-02-19T12:30:53.664Z,97804.03
2023-02-19T12:34:25.248Z,97816.53
2023-02-19T12:37:49.330Z,97798.38
2023-02-19T12:41:17.496Z,97817.50
2023-02-19T12:44:45.659Z,97776.81
2023-02-19T12:48:00.757Z,97788.13
2023-02-19T12:51:11.240Z,97801.31
2023-02-19T12:54:27.119Z,97811.88
2023-02-19T12:57:35.636Z,97802.25
2023-02-19T13:00:50.163Z,97773.22
2023-02-19T13:04:16.939Z,97763.94
2023-02-19T13:07:48.244Z,97793.78
2023-02-19T13:11:07.323Z,97761.19
2023-02-19T13:14:21.153Z,97807.63
2023-02-19T13:17:46.120Z,97818.38
2023-02-19T13:20:52.377Z,97814.69
2023-02-19T13:24:02.040Z,97799.69
2023-02-19T13:27:21.383Z,97811.78
2023-02-19T13:31:16.216Z,97813.97
2023-02-19T13:34:47.981Z,97803.13
2023-02-19T13:37:52.363Z,97805.63
2023-02-19T13:41:00.715Z,97801.75
2023-02-19T13:44:06.221Z,97808.88
2023-02-19T13:47:47.443Z,97802.25
2023-02-19T13:50:50.921Z,97789.56
2023-02-19T13:53:56.346Z,97808.34
2023-02-19T13:57:29.973Z,97812.50
2023-02-19T14:00:52.005Z,97792.44
2023-02-19T14:04:08.287Z,97824.19
2023-02-19T14:07:10.920Z,97824.22
2023-02-19T14:10:34.877Z,97817.19
2023-02-19T14:13:52.335Z,97831.78
2023-02-19T14:17:08.660Z,97837.03
2023-02-19T14:20:46.102Z,97849.72
2023-02-19T14:23:55.472Z,97853.16
2023-02-19T14:27:01.015Z,97860.72
2023-02-19T14:30:05.401Z,97880.13
2023-02-19T14:33:11.495Z,97875.81
2023-02-19T14:36:33.884Z,97870.69
2023-02-19T14:39:39.447Z,97876.28
2023-02-19T14:42:42.774Z,97885.38
2023-02-19T14:45:51.534Z,97893.06
2023-02-19T14:48:55.040Z,97884.88
2023-02-19T14:52:04.838Z,97843.31
2023-02-19T14:55:15.641Z,97908.22
2023-02-19T14:58:25.428Z,97898.97
2023-02-19T15:01:29.553Z,97858.22
2023-02-19T15:04:38.000Z,97887.75
2023-02-19T15:07:42.942Z,97899.88
2023-02-19T15:10:47.292Z,97905.66
2023-02-19T15:13:56.343Z,97897.44
2023-02-19T15:17:06.408Z,97907.75
2023-02-19T15:20:21.533Z,97921.63
2023-02-19T15:23:26.383Z,97904.25
2023-02-19T15:26:39.295Z,97898.94
2023-02-19T15:29:47.352Z,97906.69
2023-02-19T15:32:57.011Z,97858.88
2023-02-19T15:36:05.212Z,97895.59
2023-02-19T15:39:08.196Z,97858.81
2023-02-19T15:42:18.189Z,97897.44
2023-02-19T15:45:29.719Z,97906.59
2023-02-19T15:49:06.537Z,97899.31
2023-02-19T15:52:22.974Z,97902.78
2023-02-19T15:55:32.498Z,97900.03
2023-02-19T15:58:58.192Z,97930.09
2023-02-19T16:02:02.193Z,97948.78
2023-02-19T16:05:24.347Z,97959.00
2023-02-19T16:08:35.116Z,97954.69
2023-02-19T16:11:52.655Z,97959.88
2023-02-19T16:14:55.259Z,97952.31
2023-02-19T16:17:59.895Z,97988.09
2023-02-19T16:21:10.791Z,98023.78
2023-02-19T16:24:28.205Z,98043.19
2023-02-19T16:27:36.731Z,98072.28
2023-02-19T16:30:39.776Z,98082.25
2023-02-19T16:33:44.685Z,98069.13
2023-02-19T16:36:49.847Z,98075.50
2023-02-19T16:40:09.784Z,98086.78
2023-02-19T16:43:16.139Z,98094.31
2023-02-19T16:46:23.510Z,98089.66
2023-02-19T16:49:26.580Z,98058.19
2023-02-19T16:52:30.014Z,98109.81
2023-02-19T16:55:33.343Z,98117.56
2023-02-19T16:58:38.807Z,98131.03
2023-02-19T17:01:43.039Z,98134.66
2023-02-19T17:04:47.846Z,98140.59
2023-02-19T17:07:53.666Z,98126.97
2023-02-19T17:10:56.746Z,98146.69
2023-02-19T17:13:59.773Z,98132.03
2023-02-19T17:17:02.918Z,98132.44
2023-02-19T17:20:35.725Z,98130.41
2023-02-19T17:23:39.115Z,98149.78
2023-02-19T17:26:42.328Z,98159.94
2023-02-19T17:29:47.835Z,98172.97
2023-02-19T17:32:53.933Z,98178.09
2023-02-19T17:35:56.987Z,98187.47
2023-02-19T17:39:01.667Z,98197.25
2023-02-19T17:42:06.001Z,98206.81
2023-02-19T17:45:09.811Z,98219.88
2023-02-19T17:48:13.952Z,98232.13
2023-02-19T17:51:16.381Z,98222.38
2023-02-19T17:54:19.044Z,98239.25
2023-02-19T17:57:21.811Z,98236.22
2023-02-19T18:00:31.505Z,98241.91
2023-02-19T18:03:34.608Z,98237.00
2023-02-19T18:06:38.134Z,98252.69
2023-02-19T18:09:41.717Z,98252.09
2023-02-19T18:12:45.230Z,98259.03
2023-02-19T18:15:50.498Z,98262.72
2023-02-19T18:18:53.835Z,98262.28
2023-02-19T18:21:57.272Z,98242.31
2023-02-19T18:25:00.640Z,98270.44
2023-02-19T18:28:03.948Z,98288.38
2023-02-19T18:31:08.153Z,98284.72
2023-02-19T18:34:18.676Z,98294.88
2023-02-19T18:37:24.549Z,98260.25
2023-02-19T18:40:27.885Z,98286.31
2023-02-19T18:43:30.559Z,98289.59
2023-02-19T18:46:34.961Z,98292.25
2023-02-19T18:49:38.334Z,98291.22
2023-02-19T18:52:45.795Z,98290.41
2023-02-19T18:55:48.862Z,98302.22
2023-02-19T18:58:51.773Z,98300.00
2023-02-19T19:01:55.021Z,98307.31
2023-02-19T19:05:01.038Z,98313.63
2023-02-19T19:08:04.440Z,98301.00
2023-02-19T19:11:07.193Z,98320.97
2023-02-19T19:14:10.826Z,98317.72
2023-02-19T19:17:13.854Z,98322.59
2023-02-19T19:20:23.353Z,98296.31
2023-02-19T19:23:26.485Z,98319.31
2023-02-19T19:26:29.636Z,98320.34
2023-02-19T19:29:34.043Z,98312.81
2023-02-19T19:32:38.363Z,98331.34
2023-02-19T19:35:42.163Z,98335.63
2023-02-19T19:38:45.463Z,98334.41
2023-02-19T19:41:57.558Z,98296.47
2023-02-19T19:45:00.786Z,98338.09
2023-02-19T19:48:04.965Z,98343.81
2023-02-19T19:51:10.382Z,98317.69
2023-02-19T19:54:13.993Z,98358.47
2023-02-19T19:57:17.373Z,98359.91
2023-02-19T20:00:20.641Z,98372.94
2023-02-19T20:03:23.827Z,98378.06
2023-02-19T20:06:31.781Z,98377.03
2023-02-19T20:09:35.095Z,98379.28
2023-02-19T20:12:44.879Z,98376.63
2023-02-19T20:15:48.131Z,98382.31
2023-02-19T20:18:51.934Z,98382.75
2023-02-19T20:21:55.467Z,98367.88
2023-02-19T20:24:58.538Z,98373.16
2023-02-19T20:28:01.548Z,98396.41
2023-02-19T20:31:07.468Z,98391.72
2023-02-19T20:34:10.367Z,98396.00
2023-02-19T20:37:13.639Z,98390.47
2023-02-19T20:40:19.472Z,98361.75
2023-02-19T20:43:21.980Z,98386.59
2023-02-19T20:46:25.614Z,98396.41
2023-02-19T20:49:31.140Z,98410.25
2023-02-19T20:52:34.128Z,98409.66
2023-02-19T20:55:45.737Z,98410.25
2023-02-19T20:58:48.762Z,98415.16
2023-02-19T21:01:52.421Z,98415.16
2023-02-19T21:04:58.787Z,98429.44
2023-02-19T21:08:01.654Z,98432.06
2023-02-19T21:11:04.220Z,98447.38
2023-02-19T21:14:15.614Z,98450.63
2023-02-19T21:17:18.689Z,98443.72
2023-02-19T21:20:21.755Z,98444.72
2023-02-19T21:23:25.898Z,98436.16
2023-02-19T21:26:39.733Z,98423.88
2023-02-19T21:29:42.412Z,98449.19
2023-02-19T21:32:45.796Z,98449.41
2023-02-19T21:35:48.223Z,98455.50
2023-02-19T21:38:50.658Z,98434.28
2023-02-19T21:41:53.661Z,98455.91
2023-02-19T21:44:56.723Z,98460.59
2023-02-19T21:47:59.327Z,98462.44
2023-02-19T21:51:01.872Z,98469.56
2023-02-19T21:54:05.941Z,98460.16
2023-02-19T21:57:09.820Z,98466.28
2023-02-19T22:00:12.928Z,98467.47
2023-02-19T22:03:16.536Z,98483.53
2023-02-19T22:06:20.002Z,98485.50
2023-02-19T22:09:22.140Z,98466.34
2023-02-19T22:12:24.118Z,98485.28
2023-02-19T22:15:26.077Z,98483.28
2023-02-19T22:18:28.120Z,98476.72
2023-02-19T22:21:32.698Z,98483.44
2023-02-19T22:24:34.629Z,98452.03
2023-02-19T22:27:36.707Z,98480.84
2023-02-19T22:30:38.747Z,98486.53
2023-02-19T22:33:40.863Z,98491.63
2023-02-19T22:36:43.343Z,98493.81
2023-02-19T22:39:45.692Z,98480.56
2023-02-19T22:42:47.591Z,98495.38
2023-02-19T22:45:49.562Z,98494.41
2023-02-19T22:48:51.642Z,98514.38
2023-02-19T22:52:24.145Z,98501.72
2023-02-19T22:55:26.084Z,98502.53
2023-02-19T22:58:28.078Z,98495.81
2023-02-19T23:01:30.123Z,98500.09
2023-02-19T23:04:32.141Z,98495.03
2023-02-19T23:07:34.099Z,98498.50
2023-02-19T23:10:36.013Z,98504.22
2023-02-19T23:13:38.066Z,98495.28
2023-02-19T23:16:40.114Z,98472.81
2023-02-19T23:19:42.131Z,98509.19
2023-02-19T23:22:44.243Z,98507.50
2023-02-19T23:25:46.210Z,98503.22
2023-02-19T23:28:48.252Z,98489.81
2023-02-19T23:31:50.478Z,98492.28
2023-02-19T23:34:52.685Z,98495.13
2023-02-19T23:37:56.050Z,98458.53
2023-02-19T23:40:59.011Z,98487.75
2023-02-19T23:44:00.992Z,98496.06
2023-02-19T23:47:02.929Z,98499.09
2023-02-19T23:50:05.295Z,98505.22
2023-02-19T23:53:07.418Z,98502.66
2023-02-19T23:56:09.438Z,98493.09
2023-02-19T23:59:12.376Z,98455.97
